Time;durP1;ratioP1;P1;durP2;ratioP2;P2;SDS_P1;SDS_P2;PMS_P1;PMS_P2;Temp;Humidity;BMP_temperature;BMP_pressure;BME280_temperature;BME280_humidity;BME280_pressure;Samples;Min_cycle;Max_cycle;Signal;HPM_P1;HPM_P2
2022/06/13 00:01:56;;;;;;;;;;;18.50;95.70;;;;;;4345717;33;44675;-80
2022/06/13 00:04:29;;;;;;;;;;;18.50;95.50;;;;;;4346600;33;44929;-80
2022/06/13 00:06:59;;;;;;;;;;;18.40;95.50;;;;;;4346631;33;43452;-80
2022/06/13 00:09:28;;;;;;;;;;;18.40;95.70;;;;;;4346507;33;43674;-80
2022/06/13 00:11:58;;;;;;;;;;;18.40;95.60;;;;;;4347018;33;20043;-80
2022/06/13 00:14:30;;;;;;;;;;;18.40;95.60;;;;;;4346704;33;43537;-80
2022/06/13 00:16:57;;;;;;;;;;;18.40;95.60;;;;;;4346206;33;44137;-80
2022/06/13 00:19:29;;;;;;;;;;;18.30;95.20;;;;;;4346274;32;43224;-80
2022/06/13 00:21:56;;;;;;;;;;;18.30;95.50;;;;;;4349484;32;45979;-80
2022/06/13 00:24:29;;;;;;;;;;;18.30;95.60;;;;;;4349181;32;43821;-80
2022/06/13 00:26:58;;;;;;;;;;;18.30;95.60;;;;;;4362788;32;44898;-80
2022/06/13 00:29:30;;;;;;;;;;;18.20;95.70;;;;;;4348891;32;44709;-80
2022/06/13 00:32:00;;;;;;;;;;;18.20;95.50;;;;;;4349226;32;46246;-80
2022/06/13 00:34:29;;;;;;;;;;;18.20;95.40;;;;;;4349388;32;43474;-80
2022/06/13 00:36:56;;;;;;;;;;;18.20;95.50;;;;;;4349254;32;44817;-80
2022/06/13 00:39:24;;;;;;;;;;;18.20;95.60;;;;;;4348889;32;46146;-80
2022/06/13 00:41:53;;;;;;;;;;;18.10;95.50;;;;;;4349303;32;46090;-80
2022/06/13 00:44:23;;;;;;;;;;;18.10;95.50;;;;;;4349238;32;44209;-80
2022/06/13 00:46:57;;;;;;;;;;;18.10;95.40;;;;;;4349142;32;44511;-80
2022/06/13 00:49:40;;;;;;;;;;;18.10;95.80;;;;;;4349152;32;46281;-80
2022/06/13 00:52:28;;;;;;;;;;;18.00;95.60;;;;;;4362639;32;44336;-80
2022/06/13 00:54:56;;;;;;;;;;;18.10;95.70;;;;;;4362393;32;43884;-80
2022/06/13 00:57:29;;;;;;;;;;;18.10;95.90;;;;;;4349131;32;44670;-80
2022/06/13 01:00:01;;;;;;;;;;;18.00;95.60;;;;;;4348900;32;43138;-80
2022/06/13 01:02:35;;;;;;;;;;;18.00;95.70;;;;;;4348709;32;44457;-80
2022/06/13 01:05:07;;;;;;;;;;;18.00;95.60;;;;;;4362429;32;43482;-80
2022/06/13 01:07:35;;;;;;;;;;;18.00;95.70;;;;;;4348959;32;45722;-80
2022/06/13 01:12:53;;;;;;;;;;;17.90;95.50;;;;;;4362131;32;45734;-80
2022/06/13 01:15:40;;;;;;;;;;;18.00;95.60;;;;;;4349366;32;20005;-80
2022/06/13 01:18:23;;;;;;;;;;;17.90;95.40;;;;;;4348687;32;44074;-80
2022/06/13 01:21:02;;;;;;;;;;;17.90;95.50;;;;;;4348620;32;44058;-80
2022/06/13 01:23:46;;;;;;;;;;;17.90;95.70;;;;;;4348763;32;42570;-80
2022/06/13 01:26:21;;;;;;;;;;;17.90;95.80;;;;;;4348227;32;44009;-80
2022/06/13 01:29:15;;;;;;;;;;;17.80;95.50;;;;;;4348600;32;43261;-80
2022/06/13 01:32:01;;;;;;;;;;;17.80;95.30;;;;;;4336354;32;42775;-80
2022/06/13 01:34:38;;;;;;;;;;;17.80;95.50;;;;;;4348590;32;45839;-80
2022/06/13 01:37:16;;;;;;;;;;;17.80;95.50;;;;;;4361667;32;43262;-80
2022/06/13 01:39:58;;;;;;;;;;;17.80;95.40;;;;;;4348528;32;45074;-80
2022/06/13 01:42:42;;;;;;;;;;;17.80;95.40;;;;;;4348581;32;44752;-80
2022/06/13 01:45:12;;;;;;;;;;;17.80;95.50;;;;;;4361285;32;42723;-80
2022/06/13 01:47:46;;;;;;;;;;;17.80;95.50;;;;;;4348600;32;45706;-80
2022/06/13 01:50:36;;;;;;;;;;;17.70;95.50;;;;;;4348200;32;43965;-80
2022/06/13 01:53:14;;;;;;;;;;;17.70;95.50;;;;;;4348240;32;45778;-80
2022/06/13 01:55:44;;;;;;;;;;;17.70;95.40;;;;;;4361061;32;44248;-80
2022/06/13 01:58:20;;;;;;;;;;;17.70;95.30;;;;;;4348249;32;42536;-81
2022/06/13 02:00:54;;;;;;;;;;;17.70;95.30;;;;;;4348219;32;44774;-81
2022/06/13 02:03:27;;;;;;;;;;;17.70;95.50;;;;;;4361000;32;44516;-80
2022/06/13 02:05:57;;;;;;;;;;;17.70;95.30;;;;;;4348339;32;44157;-80
2022/06/13 02:08:33;;;;;;;;;;;17.60;95.30;;;;;;4360917;32;44203;-80
2022/06/13 02:11:06;;;;;;;;;;;17.60;95.30;;;;;;4348155;32;43505;-81
2022/06/13 02:13:39;;;;;;;;;;;17.60;95.40;;;;;;4347937;32;43182;-81
2022/06/13 02:16:19;;;;;;;;;;;17.50;95.40;;;;;;4348036;32;45308;-81
2022/06/13 02:18:54;;;;;;;;;;;17.60;95.60;;;;;;4348255;32;19993;-81
2022/06/13 02:21:26;;;;;;;;;;;17.50;95.50;;;;;;4348011;32;45727;-81
2022/06/13 02:24:00;;;;;;;;;;;17.50;95.60;;;;;;4361213;32;43373;-81
2022/06/13 02:26:31;;;;;;;;;;;17.50;94.90;;;;;;4360796;32;42610;-81
2022/06/13 02:29:08;;;;;;;;;;;17.40;95.30;;;;;;4347686;32;44239;-81
2022/06/13 02:31:44;;;;;;;;;;;17.40;95.30;;;;;;4347768;32;45601;-81
2022/06/13 02:34:17;;;;;;;;;;;17.40;95.60;;;;;;4347732;32;44335;-81
2022/06/13 02:36:55;;;;;;;;;;;17.40;95.50;;;;;;4347732;32;46131;-80
2022/06/13 02:39:30;;;;;;;;;;;17.40;95.30;;;;;;4360539;32;42648;-80
2022/06/13 02:42:01;;;;;;;;;;;17.40;95.30;;;;;;4361021;32;44773;-81
2022/06/13 02:44:40;;;;;;;;;;;17.30;95.30;;;;;;4360384;32;44674;-81
2022/06/13 02:47:11;;;;;;;;;;;17.30;95.40;;;;;;4361099;32;44675;-81
2022/06/13 02:49:41;;;;;;;;;;;17.30;95.40;;;;;;4347536;32;46184;-81
2022/06/13 02:52:20;;;;;;;;;;;17.30;95.00;;;;;;4347399;32;43490;-81
2022/06/13 02:54:53;;;;;;;;;;;17.30;95.50;;;;;;4360835;32;45044;-81
2022/06/13 02:57:37;;;;;;;;;;;17.30;95.40;;;;;;4347264;32;45869;-81
2022/06/13 03:00:14;;;;;;;;;;;17.20;95.20;;;;;;4346855;32;44219;-81
2022/06/13 03:02:52;;;;;;;;;;;17.20;95.20;;;;;;4346897;32;44274;-81
2022/06/13 03:05:38;;;;;;;;;;;17.20;95.60;;;;;;4347645;32;45964;-81
2022/06/13 03:08:15;;;;;;;;;;;17.20;95.80;;;;;;4347366;32;43632;-81
2022/06/13 03:10:46;;;;;;;;;;;17.20;95.60;;;;;;4347155;32;45823;-80
2022/06/13 03:13:22;;;;;;;;;;;17.20;95.20;;;;;;4346640;32;42538;-81
2022/06/13 03:15:56;;;;;;;;;;;17.10;95.70;;;;;;4347065;32;43493;-80
2022/06/13 03:18:28;;;;;;;;;;;17.10;95.80;;;;;;4346928;32;44649;-81
2022/06/13 03:21:07;;;;;;;;;;;17.10;95.50;;;;;;4346557;32;43936;-81
2022/06/13 03:23:44;;;;;;;;;;;17.00;95.40;;;;;;4347097;32;44431;-80
2022/06/13 03:26:16;;;;;;;;;;;17.00;95.70;;;;;;4360681;32;44280;-81
2022/06/13 03:28:48;;;;;;;;;;;17.00;95.90;;;;;;4346733;32;43266;-80
2022/06/13 03:31:24;;;;;;;;;;;17.00;95.70;;;;;;4359867;32;42933;-80
2022/06/13 03:33:57;;;;;;;;;;;17.00;95.80;;;;;;4346833;32;44227;-81
2022/06/13 03:36:56;;;;;;;;;;;16.90;95.80;;;;;;4346666;32;42549;-81
2022/06/13 03:39:33;;;;;;;;;;;16.90;96.00;;;;;;4345932;32;44921;-80
2022/06/13 03:42:08;;;;;;;;;;;16.90;96.20;;;;;;4346881;32;43459;-80
2022/06/13 03:44:47;;;;;;;;;;;16.90;96.00;;;;;;4347222;32;42903;-80
2022/06/13 03:47:17;;;;;;;;;;;16.90;96.30;;;;;;4360298;32;45680;-80
2022/06/13 03:49:49;;;;;;;;;;;16.90;96.40;;;;;;4346803;32;42510;-80
2022/06/13 03:52:21;;;;;;;;;;;16.90;96.60;;;;;;4360023;32;44638;-80
2022/06/13 03:55:04;;;;;;;;;;;16.90;96.70;;;;;;4346353;33;44466;-80
2022/06/13 03:57:41;;;;;;;;;;;16.90;96.70;;;;;;4346636;33;42667;-80
2022/06/13 04:00:14;;;;;;;;;;;16.90;96.80;;;;;;4360081;33;45672;-80
2022/06/13 04:02:42;;;;;;;;;;;16.80;97.00;;;;;;4359460;32;43478;-80
2022/06/13 04:05:22;;;;;;;;;;;16.90;97.20;;;;;;4346204;33;42755;-81
2022/06/13 04:07:55;;;;;;;;;;;16.80;97.20;;;;;;4359996;33;45112;-80
2022/06/13 04:10:23;;;;;;;;;;;16.80;97.30;;;;;;4346724;33;44676;-80
2022/06/13 04:12:59;;;;;;;;;;;16.80;97.50;;;;;;4346550;33;45457;-80
2022/06/13 04:15:41;;;;;;;;;;;16.80;97.60;;;;;;4359924;33;44404;-80
2022/06/13 04:18:43;;;;;;;;;;;16.80;97.80;;;;;;4346635;33;46055;-80
2022/06/13 04:21:18;;;;;;;;;;;16.80;97.90;;;;;;4335226;32;44975;-80
2022/06/13 04:23:59;;;;;;;;;;;16.80;98.00;;;;;;4360740;33;20384;-80
2022/06/13 04:26:35;;;;;;;;;;;16.80;98.00;;;;;;4346524;33;43462;-81
2022/06/13 04:29:21;;;;;;;;;;;16.80;98.20;;;;;;4346243;33;43827;-81
2022/06/13 04:31:55;;;;;;;;;;;16.80;98.20;;;;;;4346467;33;42233;-80
2022/06/13 04:34:26;;;;;;;;;;;16.80;98.30;;;;;;4346389;33;44802;-81
2022/06/13 04:36:56;;;;;;;;;;;16.70;98.50;;;;;;4359438;33;46371;-81
2022/06/13 04:39:29;;;;;;;;;;;16.70;98.50;;;;;;4346436;33;43581;-80
2022/06/13 04:42:03;;;;;;;;;;;16.70;98.60;;;;;;4346045;33;42657;-80
2022/06/13 04:44:31;;;;;;;;;;;16.70;98.80;;;;;;4359339;33;42775;-80
2022/06/13 04:47:01;;;;;;;;;;;16.70;98.90;;;;;;4346298;33;45541;-81
2022/06/13 04:49:34;;;;;;;;;;;16.70;99.00;;;;;;4345799;33;44282;-80
2022/06/13 04:52:14;;;;;;;;;;;16.70;99.00;;;;;;4359642;33;45393;-80
2022/06/13 04:54:46;;;;;;;;;;;16.70;99.20;;;;;;4359792;33;20460;-80
2022/06/13 04:57:16;;;;;;;;;;;16.70;99.30;;;;;;4346277;33;44920;-80
2022/06/13 04:59:49;;;;;;;;;;;16.70;99.20;;;;;;4346277;33;42895;-80
2022/06/13 05:02:22;;;;;;;;;;;16.70;99.40;;;;;;4359099;32;44662;-80
2022/06/13 05:04:55;;;;;;;;;;;16.70;99.50;;;;;;4346039;33;46314;-81
2022/06/13 05:07:22;;;;;;;;;;;16.70;99.50;;;;;;4347368;32;43638;-83
2022/06/13 05:10:01;;;;;;;;;;;16.70;99.60;;;;;;4349035;32;44876;-81
2022/06/13 05:12:40;;;;;;;;;;;16.70;99.60;;;;;;4362422;32;44250;-81
2022/06/13 05:15:19;;;;;;;;;;;16.80;99.60;;;;;;4349078;32;42084;-81
2022/06/13 05:17:52;;;;;;;;;;;16.70;99.90;;;;;;4348890;32;43433;-83
2022/06/13 05:20:34;;;;;;;;;;;16.70;99.60;;;;;;4348593;32;43932;-81
2022/06/13 05:23:10;;;;;;;;;;;16.80;99.70;;;;;;4361664;32;44215;-81
2022/06/13 05:25:53;;;;;;;;;;;16.70;99.80;;;;;;4349434;32;20001;-80
2022/06/13 05:28:23;;;;;;;;;;;16.70;99.80;;;;;;4361578;32;43971;-82
2022/06/13 05:30:54;;;;;;;;;;;16.70;99.90;;;;;;4348340;32;43181;-80
2022/06/13 05:33:23;;;;;;;;;;;16.70;99.90;;;;;;4348077;32;45353;-82
2022/06/13 05:35:55;;;;;;;;;;;16.70;99.90;;;;;;4348934;32;45086;-81
2022/06/13 05:38:36;;;;;;;;;;;16.70;99.90;;;;;;4348165;32;46028;-81
2022/06/13 05:41:06;;;;;;;;;;;16.70;99.90;;;;;;4347958;32;44863;-82
2022/06/13 05:43:36;;;;;;;;;;;16.70;99.90;;;;;;4361259;32;45097;-82
2022/06/13 05:46:07;;;;;;;;;;;16.70;99.90;;;;;;4347878;32;44254;-82
2022/06/13 05:48:35;;;;;;;;;;;16.70;99.90;;;;;;4347917;32;45813;-83
2022/06/13 05:51:05;;;;;;;;;;;16.70;99.90;;;;;;4348290;32;44721;-80
2022/06/13 05:53:35;;;;;;;;;;;16.70;99.90;;;;;;4347716;32;42893;-82
2022/06/13 05:56:05;;;;;;;;;;;16.70;99.90;;;;;;4362021;32;19996;-83
2022/06/13 05:58:36;;;;;;;;;;;16.70;99.90;;;;;;4348145;32;45188;-83
2022/06/13 06:01:06;;;;;;;;;;;16.70;99.90;;;;;;4361593;32;44747;-83
2022/06/13 06:03:36;;;;;;;;;;;16.70;99.90;;;;;;4360878;32;45922;-82
2022/06/13 06:06:06;;;;;;;;;;;16.70;99.90;;;;;;4361292;32;42764;-82
2022/06/13 06:08:36;;;;;;;;;;;16.70;99.90;;;;;;4347528;32;42510;-83
2022/06/13 06:11:05;;;;;;;;;;;16.70;99.90;;;;;;4348366;32;43257;-82
2022/06/13 06:13:36;;;;;;;;;;;16.70;99.90;;;;;;4360702;32;45877;-80
2022/06/13 06:16:03;;;;;;;;;;;16.70;99.90;;;;;;4347549;32;43306;-81
2022/06/13 06:18:34;;;;;;;;;;;16.70;99.90;;;;;;4347912;32;44638;-84
2022/06/13 06:21:01;;;;;;;;;;;16.80;99.90;;;;;;4347683;32;46340;-84
2022/06/13 06:23:34;;;;;;;;;;;16.70;99.90;;;;;;4347903;32;43192;-82
2022/06/13 06:26:02;;;;;;;;;;;16.70;99.90;;;;;;4347438;32;42912;-83
2022/06/13 06:28:33;;;;;;;;;;;16.80;99.90;;;;;;4347609;32;44006;-83
2022/06/13 06:31:00;;;;;;;;;;;16.80;99.90;;;;;;4347738;32;44570;-81
2022/06/13 06:33:27;;;;;;;;;;;16.80;99.90;;;;;;4360488;32;44402;-80
2022/06/13 06:35:57;;;;;;;;;;;16.70;99.90;;;;;;4360835;32;44726;-82
2022/06/13 06:38:27;;;;;;;;;;;16.80;99.90;;;;;;4347145;32;44020;-79
2022/06/13 06:40:57;;;;;;;;;;;16.80;99.90;;;;;;4360828;32;42932;-80
2022/06/13 06:43:27;;;;;;;;;;;16.80;99.90;;;;;;4347261;32;43475;-80
2022/06/13 06:46:00;;;;;;;;;;;16.80;99.90;;;;;;4347861;32;43728;-80
2022/06/13 06:48:36;;;;;;;;;;;16.80;99.90;;;;;;4347490;32;45990;-79
2022/06/13 06:51:09;;;;;;;;;;;16.80;99.90;;;;;;4360734;32;43361;-80
2022/06/13 07:01:54;;;;;;;;;;;16.90;99.90;;;;;;4360080;32;43941;-80
2022/06/13 07:04:26;;;;;;;;;;;16.90;99.90;;;;;;4347043;32;44521;-78
2022/06/13 07:06:59;;;;;;;;;;;16.90;99.90;;;;;;4346975;32;44455;-79
2022/06/13 07:09:29;;;;;;;;;;;16.90;99.90;;;;;;4360025;32;42859;-80
2022/06/13 07:11:59;;;;;;;;;;;16.90;99.90;;;;;;4347238;32;44894;-80
2022/06/13 07:14:36;;;;;;;;;;;16.90;99.90;;;;;;4359902;32;44935;-80
2022/06/13 07:17:05;;;;;;;;;;;16.90;99.90;;;;;;4347357;32;43278;-79
2022/06/13 07:19:32;;;;;;;;;;;16.90;99.90;;;;;;4347163;32;42678;-80
2022/06/13 07:22:05;;;;;;;;;;;16.90;99.90;;;;;;4347052;32;43448;-80
2022/06/13 07:24:33;;;;;;;;;;;17.00;99.90;;;;;;4360500;32;43526;-79
2022/06/13 07:27:03;;;;;;;;;;;16.90;99.90;;;;;;4347055;32;43938;-79
2022/06/13 07:29:33;;;;;;;;;;;16.90;99.90;;;;;;4360775;32;20001;-79
2022/06/13 07:32:03;;;;;;;;;;;17.00;99.90;;;;;;4346963;32;43482;-80
2022/06/13 07:34:31;;;;;;;;;;;17.00;99.90;;;;;;4346252;32;44033;-79
2022/06/13 07:37:04;;;;;;;;;;;17.00;99.90;;;;;;4347005;32;44832;-78
2022/06/13 07:39:31;;;;;;;;;;;17.00;99.90;;;;;;4360117;32;44216;-80
2022/06/13 07:42:04;;;;;;;;;;;17.00;99.90;;;;;;4359802;32;44227;-80
2022/06/13 07:44:39;;;;;;;;;;;17.00;99.90;;;;;;4346534;32;43882;-80
2022/06/13 07:47:14;;;;;;;;;;;17.00;99.90;;;;;;4345930;32;43300;-79
2022/06/13 07:49:42;;;;;;;;;;;17.00;99.90;;;;;;4359773;32;44613;-79
2022/06/13 07:52:14;;;;;;;;;;;17.00;99.90;;;;;;4359355;32;43815;-80
2022/06/13 07:54:47;;;;;;;;;;;17.00;99.90;;;;;;4346049;33;42939;-79
2022/06/13 07:57:23;;;;;;;;;;;17.00;99.90;;;;;;4346691;33;43529;-78
2022/06/13 07:59:53;;;;;;;;;;;17.00;99.90;;;;;;4348202;33;19997;-78
2022/06/13 08:02:20;;;;;;;;;;;17.00;99.90;;;;;;4346551;33;43162;-79
2022/06/13 08:04:52;;;;;;;;;;;17.10;99.90;;;;;;4346431;33;43782;-79
2022/06/13 08:07:26;;;;;;;;;;;17.10;99.90;;;;;;4360015;33;43085;-79
2022/06/13 08:09:57;;;;;;;;;;;17.10;99.90;;;;;;4346549;33;45079;-79
2022/06/13 08:12:29;;;;;;;;;;;17.10;99.90;;;;;;4346378;33;42555;-79
2022/06/13 08:14:56;;;;;;;;;;;17.10;99.90;;;;;;4360002;33;44235;-80
2022/06/13 08:17:24;;;;;;;;;;;17.10;99.90;;;;;;4346752;33;43180;-79
2022/06/13 08:19:51;;;;;;;;;;;17.10;99.90;;;;;;4346667;33;43234;-78
2022/06/13 08:22:23;;;;;;;;;;;17.10;99.90;;;;;;4346141;33;43054;-79
2022/06/13 08:24:51;;;;;;;;;;;17.10;99.90;;;;;;4346796;33;43355;-79
2022/06/13 08:27:20;;;;;;;;;;;17.10;99.90;;;;;;4346678;33;44914;-79
2022/06/13 08:29:53;;;;;;;;;;;17.10;99.90;;;;;;4359461;32;45028;-80
2022/06/13 08:32:20;;;;;;;;;;;17.10;99.90;;;;;;4346571;33;44560;-80
2022/06/13 08:34:49;;;;;;;;;;;17.10;99.90;;;;;;4359333;33;45454;-80
2022/06/13 08:37:17;;;;;;;;;;;17.20;99.90;;;;;;4359298;33;43630;-79
2022/06/13 08:39:47;;;;;;;;;;;17.10;99.90;;;;;;4346180;33;43194;-79
2022/06/13 08:42:22;;;;;;;;;;;17.20;99.90;;;;;;4347006;32;43347;-80
2022/06/13 08:45:07;;;;;;;;;;;17.10;99.90;;;;;;4349246;32;43316;-80
2022/06/13 08:47:54;;;;;;;;;;;17.20;99.90;;;;;;4349118;32;45472;-80
2022/06/13 08:50:21;;;;;;;;;;;17.20;99.90;;;;;;4349040;32;45171;-80
2022/06/13 08:52:54;;;;;;;;;;;17.20;99.90;;;;;;4348677;32;41979;-80
2022/06/13 08:55:27;;;;;;;;;;;17.20;99.90;;;;;;4362566;32;43194;-80
2022/06/13 08:58:14;;;;;;;;;;;17.20;99.90;;;;;;4348689;32;43478;-80
2022/06/13 09:00:45;;;;;;;;;;;17.20;99.90;;;;;;4362080;32;44265;-80
2022/06/13 09:03:35;;;;;;;;;;;17.20;99.90;;;;;;4349507;32;20004;-80
2022/06/13 09:06:08;;;;;;;;;;;17.20;99.90;;;;;;4349021;32;44665;-80
2022/06/13 09:08:44;;;;;;;;;;;17.20;99.90;;;;;;4362258;32;43864;-80
2022/06/13 09:11:17;;;;;;;;;;;17.20;99.90;;;;;;4361948;32;43508;-81
2022/06/13 09:14:09;;;;;;;;;;;17.20;99.80;;;;;;4348452;32;45738;-80
2022/06/13 09:16:38;;;;;;;;;;;17.20;99.80;;;;;;4348745;32;43923;-80
2022/06/13 09:19:34;;;;;;;;;;;17.20;99.90;;;;;;4348413;32;44607;-80
2022/06/13 09:22:18;;;;;;;;;;;17.20;99.90;;;;;;4348159;32;43297;-80
2022/06/13 09:25:05;;;;;;;;;;;17.20;99.80;;;;;;4348717;32;44758;-80
2022/06/13 09:27:38;;;;;;;;;;;17.20;99.70;;;;;;4348657;32;45211;-80
2022/06/13 09:30:07;;;;;;;;;;;17.20;99.60;;;;;;4361996;32;46289;-79
2022/06/13 09:32:41;;;;;;;;;;;17.30;99.60;;;;;;4348988;32;43482;-79
2022/06/13 09:35:12;;;;;;;;;;;17.30;99.60;;;;;;4348522;32;45655;-80
2022/06/13 09:37:42;;;;;;;;;;;17.20;99.70;;;;;;4348492;32;44198;-80
2022/06/13 09:40:11;;;;;;;;;;;17.20;99.60;;;;;;4361452;32;42776;-80
2022/06/13 09:42:57;;;;;;;;;;;17.20;99.60;;;;;;4361763;32;43200;-79
2022/06/13 09:45:30;;;;;;;;;;;17.30;99.80;;;;;;4347944;32;44358;-80
2022/06/13 09:48:05;;;;;;;;;;;17.30;99.80;;;;;;4348423;32;43258;-80
2022/06/13 09:50:43;;;;;;;;;;;17.30;99.90;;;;;;4348366;32;44211;-79
2022/06/13 09:53:26;;;;;;;;;;;17.30;99.90;;;;;;4347534;32;43071;-79
2022/06/13 09:56:03;;;;;;;;;;;17.30;99.90;;;;;;4348379;32;46299;-80
2022/06/13 09:58:37;;;;;;;;;;;17.30;99.90;;;;;;4348321;32;44217;-79
2022/06/13 10:01:23;;;;;;;;;;;17.30;99.90;;;;;;4348421;32;42415;-80
2022/06/13 10:04:12;;;;;;;;;;;17.30;99.90;;;;;;4362382;32;20001;-80
2022/06/13 10:06:47;;;;;;;;;;;17.30;99.90;;;;;;4361073;32;42802;-80
2022/06/13 10:09:30;;;;;;;;;;;17.30;99.90;;;;;;4348081;32;44660;-79
2022/06/13 10:12:03;;;;;;;;;;;17.30;99.90;;;;;;4347818;32;44120;-80
2022/06/13 10:14:40;;;;;;;;;;;17.30;99.90;;;;;;4347450;32;44144;-80
2022/06/13 10:17:10;;;;;;;;;;;17.30;99.90;;;;;;4348116;32;43860;-79
2022/06/13 10:20:10;;;;;;;;;;;17.30;99.90;;;;;;4347553;32;45815;-80
2022/06/13 10:23:03;;;;;;;;;;;17.30;99.90;;;;;;4331324;32;43984;-79
2022/06/13 10:25:30;;;;;;;;;;;17.30;99.80;;;;;;4359197;32;43946;-80
2022/06/13 10:28:06;;;;;;;;;;;17.30;99.80;;;;;;4347681;32;45254;-79
2022/06/13 10:30:51;;;;;;;;;;;17.30;99.90;;;;;;4347672;32;43938;-79
2022/06/13 10:33:26;;;;;;;;;;;17.40;99.90;;;;;;4361084;32;43869;-79
2022/06/13 10:35:59;;;;;;;;;;;17.40;99.90;;;;;;4347692;32;44832;-79
2022/06/13 10:38:26;;;;;;;;;;;17.40;99.80;;;;;;4347662;32;44354;-80
2022/06/13 10:40:53;;;;;;;;;;;17.40;99.90;;;;;;4347718;32;43543;-80
2022/06/13 10:43:21;;;;;;;;;;;17.40;99.50;;;;;;4347103;32;44792;-80
2022/06/13 10:45:48;;;;;;;;;;;17.40;99.50;;;;;;4347673;32;44220;-80
2022/06/13 10:48:21;;;;;;;;;;;17.40;99.40;;;;;;4347284;32;46135;-79
2022/06/13 10:50:54;;;;;;;;;;;17.40;99.10;;;;;;4347023;32;43396;-80
2022/06/13 10:53:24;;;;;;;;;;;17.40;99.30;;;;;;4346989;32;44171;-79
2022/06/13 10:55:52;;;;;;;;;;;17.40;99.40;;;;;;4360364;32;43483;-80
2022/06/13 10:58:22;;;;;;;;;;;17.50;99.40;;;;;;4347044;32;43014;-80
2022/06/13 11:01:22;;;;;;;;;;;17.40;99.40;;;;;;4347291;32;43108;-80
2022/06/13 11:04:24;;;;;;;;;;;17.50;99.50;;;;;;4343107;32;44154;-79
2022/06/13 11:06:53;;;;;;;;;;;17.50;99.50;;;;;;4314327;33;44587;-80
2022/06/13 11:09:27;;;;;;;;;;;17.50;99.70;;;;;;4338423;32;43950;-80
2022/06/13 11:11:57;;;;;;;;;;;17.50;99.70;;;;;;4347107;32;44070;-80
2022/06/13 11:14:35;;;;;;;;;;;17.50;99.40;;;;;;4347147;32;45696;-80
2022/06/13 11:22:43;;;;;;;;;;;17.50;99.10;;;;;;4360034;32;44567;-80
2022/06/13 11:25:16;;;;;;;;;;;17.60;99.00;;;;;;4347068;32;46058;-80
2022/06/13 11:27:45;;;;;;;;;;;17.60;99.10;;;;;;4347141;32;46226;-80
2022/06/13 11:30:18;;;;;;;;;;;17.60;99.20;;;;;;4360395;32;43299;-80
2022/06/13 11:32:57;;;;;;;;;;;17.60;99.20;;;;;;4346501;32;42504;-79
2022/06/13 11:35:43;;;;;;;;;;;17.50;99.40;;;;;;4359852;32;44199;-80
2022/06/13 11:38:27;;;;;;;;;;;17.60;99.20;;;;;;4347412;32;23213;-80
2022/06/13 11:41:14;;;;;;;;;;;17.60;99.20;;;;;;4360197;32;43242;-80
2022/06/13 11:43:44;;;;;;;;;;;17.60;99.30;;;;;;4360263;32;44014;-80
2022/06/13 11:46:27;;;;;;;;;;;17.60;99.20;;;;;;4360307;32;44385;-80
2022/06/13 11:48:55;;;;;;;;;;;17.60;99.10;;;;;;4347063;32;43520;-80
2022/06/13 11:51:24;;;;;;;;;;;17.60;98.90;;;;;;4346273;32;45609;-80
2022/06/13 11:53:53;;;;;;;;;;;17.60;98.60;;;;;;4346318;32;44129;-80
2022/06/13 11:56:28;;;;;;;;;;;17.60;98.60;;;;;;4346510;33;45793;-80
2022/06/13 11:58:57;;;;;;;;;;;17.70;99.00;;;;;;4360324;33;44158;-79
2022/06/13 12:01:28;;;;;;;;;;;17.60;99.10;;;;;;4346363;32;43470;-80
2022/06/13 12:04:14;;;;;;;;;;;17.70;99.20;;;;;;4359568;33;44058;-79
2022/06/13 12:06:47;;;;;;;;;;;17.70;99.10;;;;;;4346424;33;42969;-79
2022/06/13 12:09:24;;;;;;;;;;;17.70;98.80;;;;;;4347171;33;19997;-79
2022/06/13 12:11:56;;;;;;;;;;;17.70;98.80;;;;;;4359959;33;44184;-79
2022/06/13 12:14:24;;;;;;;;;;;17.70;98.80;;;;;;4346461;33;43210;-80
2022/06/13 12:17:30;;;;;;;;;;;17.80;98.80;;;;;;4348366;32;44153;-80
2022/06/13 12:20:03;;;;;;;;;;;17.80;98.90;;;;;;4318795;33;45190;-81
2022/06/13 12:22:34;;;;;;;;;;;17.80;98.70;;;;;;4331379;33;43318;-79
2022/06/13 12:25:07;;;;;;;;;;;17.80;98.60;;;;;;4335484;32;42756;-80
2022/06/13 12:27:48;;;;;;;;;;;17.90;98.30;;;;;;4349516;32;43412;-80
2022/06/13 12:30:18;;;;;;;;;;;17.90;98.50;;;;;;4349370;32;42813;-80
2022/06/13 12:32:50;;;;;;;;;;;17.90;98.60;;;;;;4362641;32;43238;-80
2022/06/13 12:35:17;;;;;;;;;;;17.90;98.60;;;;;;4348960;32;42827;-80
2022/06/13 12:37:47;;;;;;;;;;;17.90;98.20;;;;;;4362578;32;43364;-80
2022/06/13 12:40:28;;;;;;;;;;;17.90;98.20;;;;;;4349265;32;45595;-80
2022/06/13 12:43:13;;;;;;;;;;;17.90;98.20;;;;;;4349539;32;43043;-80
2022/06/13 12:45:59;;;;;;;;;;;18.00;98.30;;;;;;4362669;32;44011;-80
2022/06/13 12:48:38;;;;;;;;;;;18.00;98.40;;;;;;4362621;32;44307;-80
2022/06/13 12:51:05;;;;;;;;;;;18.10;98.20;;;;;;4349394;32;43589;-79
2022/06/13 12:53:52;;;;;;;;;;;18.10;97.80;;;;;;4348691;32;43483;-80
2022/06/13 12:56:32;;;;;;;;;;;18.10;97.70;;;;;;4349440;32;43576;-79
2022/06/13 12:59:15;;;;;;;;;;;18.10;98.00;;;;;;4349060;32;45693;-79
2022/06/13 13:01:49;;;;;;;;;;;18.10;97.80;;;;;;4348685;32;43212;-79
2022/06/13 13:04:16;;;;;;;;;;;18.10;97.50;;;;;;4349182;32;44448;-80
2022/06/13 13:06:52;;;;;;;;;;;18.10;97.50;;;;;;4348799;32;45426;-78
2022/06/13 13:09:38;;;;;;;;;;;18.10;97.90;;;;;;4362188;32;44554;-80
2022/06/13 13:12:25;;;;;;;;;;;18.10;97.60;;;;;;4349282;32;20015;-80
2022/06/13 13:14:52;;;;;;;;;;;18.10;97.60;;;;;;4348722;32;43024;-80
2022/06/13 13:17:25;;;;;;;;;;;18.10;97.70;;;;;;4348726;32;42998;-79
2022/06/13 13:19:59;;;;;;;;;;;18.20;97.80;;;;;;4362531;32;43969;-79
2022/06/13 13:22:33;;;;;;;;;;;18.20;97.70;;;;;;4348719;32;44327;-80
2022/06/13 13:25:33;;;;;;;;;;;18.20;97.50;;;;;;4350424;32;46282;-79
2022/06/13 13:28:24;;;;;;;;;;;18.20;97.70;;;;;;4347427;32;43893;-80
2022/06/13 13:30:59;;;;;;;;;;;18.20;97.50;;;;;;4361534;32;43494;-78
2022/06/13 13:33:46;;;;;;;;;;;18.20;97.50;;;;;;4348731;32;44466;-79
2022/06/13 13:36:19;;;;;;;;;;;18.20;97.20;;;;;;4348304;32;44939;-80
2022/06/13 13:38:49;;;;;;;;;;;18.20;97.50;;;;;;4348400;32;43708;-79
2022/06/13 13:41:37;;;;;;;;;;;18.20;97.40;;;;;;4361699;32;42844;-79
2022/06/13 13:44:10;;;;;;;;;;;18.30;97.50;;;;;;4348456;32;44548;-79
2022/06/13 13:46:43;;;;;;;;;;;18.20;97.50;;;;;;4361806;32;43137;-78
2022/06/13 13:49:30;;;;;;;;;;;18.30;97.40;;;;;;4348457;32;46256;-80
2022/06/13 13:52:01;;;;;;;;;;;18.30;97.40;;;;;;4348204;32;42637;-81
2022/06/13 13:54:43;;;;;;;;;;;18.30;97.40;;;;;;4348780;32;43122;-79
2022/06/13 13:57:14;;;;;;;;;;;18.30;97.30;;;;;;4348008;32;42991;-79
2022/06/13 13:59:50;;;;;;;;;;;18.30;97.70;;;;;;4348003;32;42816;-79
2022/06/13 14:02:30;;;;;;;;;;;18.20;97.70;;;;;;4347767;32;45506;-79
2022/06/13 14:05:10;;;;;;;;;;;18.30;97.60;;;;;;4361612;32;46103;-79
2022/06/13 14:07:55;;;;;;;;;;;18.30;97.60;;;;;;4348147;32;43197;-80
2022/06/13 14:10:29;;;;;;;;;;;18.30;97.40;;;;;;4348106;32;43830;-79
2022/06/13 14:13:07;;;;;;;;;;;18.30;97.60;;;;;;4347451;32;45712;-81
2022/06/13 14:15:38;;;;;;;;;;;18.30;97.50;;;;;;4348898;32;19993;-79
2022/06/13 14:18:09;;;;;;;;;;;18.30;97.10;;;;;;4361300;32;42363;-79
2022/06/13 14:20:37;;;;;;;;;;;18.30;97.00;;;;;;4347899;32;45943;-79
2022/06/13 14:23:12;;;;;;;;;;;18.40;97.30;;;;;;4347611;32;43851;-79
2022/06/13 14:25:45;;;;;;;;;;;18.40;97.10;;;;;;4361123;32;45714;-79
2022/06/13 14:28:13;;;;;;;;;;;18.40;96.70;;;;;;4347906;32;44452;-79
2022/06/13 14:36:50;;;;;;;;;;;18.40;96.60;;;;;;4360983;32;44206;-82
2022/06/13 14:39:23;;;;;;;;;;;18.50;96.90;;;;;;4360492;32;42957;-80
2022/06/13 14:41:56;;;;;;;;;;;18.50;96.80;;;;;;4347564;32;45928;-79
2022/06/13 14:44:33;;;;;;;;;;;18.60;96.80;;;;;;4347660;32;44991;-80
2022/06/13 14:47:04;;;;;;;;;;;18.50;96.30;;;;;;4348856;32;20043;-80
2022/06/13 14:49:48;;;;;;;;;;;18.60;96.60;;;;;;4360462;32;43307;-80
2022/06/13 14:52:21;;;;;;;;;;;18.60;95.80;;;;;;4360537;32;44278;-80
2022/06/13 14:55:15;;;;;;;;;;;18.60;95.90;;;;;;4347123;32;44003;-79
2022/06/13 14:57:48;;;;;;;;;;;18.60;95.90;;;;;;4360675;32;44511;-80
2022/06/13 15:00:15;;;;;;;;;;;18.60;96.20;;;;;;4347309;32;44833;-79
2022/06/13 15:03:00;;;;;;;;;;;18.70;96.50;;;;;;4346947;32;42673;-80
2022/06/13 15:05:30;;;;;;;;;;;18.60;96.10;;;;;;4346847;32;43455;-79
2022/06/13 15:08:06;;;;;;;;;;;18.70;96.30;;;;;;4360472;32;44869;-80
2022/06/13 15:10:43;;;;;;;;;;;18.70;96.00;;;;;;4360199;32;44178;-80
2022/06/13 15:13:13;;;;;;;;;;;18.70;96.10;;;;;;4360754;32;44240;-80
2022/06/13 15:15:56;;;;;;;;;;;18.70;96.20;;;;;;4360563;32;46040;-79
2022/06/13 15:18:30;;;;;;;;;;;18.70;95.90;;;;;;4347082;32;44806;-80
2022/06/13 15:20:57;;;;;;;;;;;18.70;96.00;;;;;;4347549;32;43530;-79
2022/06/13 15:23:46;;;;;;;;;;;18.70;95.80;;;;;;4349583;32;45460;-79